createdAt,value
2019-04-20T00:02:04.387Z,15.61
2019-04-20T00:04:35.644Z,15.58
2019-04-20T00:07:08.092Z,15.32
2019-04-20T00:09:41.676Z,15.40
2019-04-20T00:12:18.906Z,15.33
2019-04-20T00:14:46.279Z,15.33
2019-04-20T00:17:17.789Z,15.23
2019-04-20T00:19:54.202Z,15.05
2019-04-20T00:22:34.411Z,15.14
2019-04-20T00:25:23.509Z,15.09
2019-04-20T00:28:25.092Z,14.98
2019-04-20T00:30:54.420Z,14.92
2019-04-20T00:33:27.123Z,14.88
2019-04-20T00:35:46.338Z,14.79
2019-04-20T00:38:21.128Z,14.69
2019-04-20T00:40:58.474Z,14.60
2019-04-20T00:43:30.103Z,14.55
2019-04-20T00:46:04.614Z,14.60
2019-04-20T00:48:40.439Z,14.49
2019-04-20T00:51:24.066Z,14.42
2019-04-20T00:53:39.674Z,14.31
2019-04-20T00:56:07.865Z,14.07
2019-04-20T00:58:52.169Z,13.98
2019-04-20T01:01:37.490Z,14.06
2019-04-20T01:04:10.774Z,13.83
2019-04-20T01:06:42.386Z,13.87
2019-04-20T01:09:07.451Z,13.86
2019-04-20T01:11:42.211Z,13.77
2019-04-20T01:14:12.803Z,13.68
2019-04-20T01:16:52.846Z,13.52
2019-04-20T01:19:21.311Z,13.53
2019-04-20T01:21:58.143Z,13.58
2019-04-20T01:24:30.865Z,13.53
2019-04-20T01:26:58.850Z,13.59
2019-04-20T01:29:34.548Z,13.49
2019-04-20T01:32:12.521Z,13.45
2019-04-20T01:34:41.628Z,13.39
2019-04-20T01:37:18.160Z,13.34
2019-04-20T01:39:41.451Z,13.14
2019-04-20T01:42:06.491Z,13.00
2019-04-20T01:44:43.381Z,13.01
2019-04-20T01:47:13.367Z,12.99
2019-04-20T01:49:47.780Z,12.96
2019-04-20T01:52:23.351Z,12.94
2019-04-20T01:55:31.688Z,12.85
2019-04-20T01:58:09.137Z,12.89
2019-04-20T02:00:36.544Z,12.92
2019-04-20T02:03:22.851Z,12.92
2019-04-20T02:06:00.172Z,12.92
2019-04-20T02:08:31.425Z,12.89
2019-04-20T02:11:05.349Z,12.82
2019-04-20T02:13:43.407Z,12.81
2019-04-20T02:16:17.563Z,12.73
2019-04-20T02:18:58.698Z,12.74
2019-04-20T02:21:29.984Z,12.81
2019-04-20T02:23:53.337Z,12.77
2019-04-20T02:26:18.094Z,12.75
2019-04-20T02:34:39.616Z,12.79
2019-04-20T02:37:13.846Z,12.81
2019-04-20T02:39:45.329Z,12.82
2019-04-20T02:44:48.119Z,12.83
2019-04-20T02:47:25.741Z,12.91
2019-04-20T02:49:52.429Z,12.73
2019-04-20T02:52:33.500Z,12.78
2019-04-20T02:55:06.346Z,12.80
2019-04-20T02:57:47.220Z,12.81
2019-04-20T03:02:18.186Z,12.76
2019-04-20T03:04:43.435Z,12.74
2019-04-20T03:07:20.642Z,12.78
2019-04-20T03:09:58.409Z,12.76
2019-04-20T03:12:33.471Z,12.74
2019-04-20T03:15:00.814Z,12.73
2019-04-20T03:17:38.711Z,12.79
2019-04-20T03:20:04.720Z,12.76
2019-04-20T03:23:11.172Z,12.64
2019-04-20T03:25:42.732Z,12.57
2019-04-20T03:28:16.479Z,12.64
2019-04-20T03:36:12.219Z,12.34
2019-04-20T03:38:38.649Z,12.26
2019-04-20T03:41:03.997Z,12.26
2019-04-20T03:43:24.501Z,12.34
2019-04-20T03:46:02.555Z,12.28
2019-04-20T03:48:40.908Z,12.17
2019-04-20T03:51:24.613Z,12.13
2019-04-20T03:54:02.779Z,12.09
2019-04-20T03:56:46.361Z,12.10
2019-04-20T03:59:51.111Z,12.10
2019-04-20T04:02:57.575Z,12.16
2019-04-20T04:05:32.392Z,12.03
2019-04-20T04:08:04.324Z,12.07
2019-04-20T04:10:41.262Z,12.09
2019-04-20T04:13:22.918Z,11.94
2019-04-20T04:16:02.890Z,11.83
2019-04-20T04:18:37.260Z,11.82
2019-04-20T04:21:09.860Z,11.81
2019-04-20T04:23:54.245Z,11.66
2019-04-20T04:26:27.477Z,11.82
2019-04-20T04:29:08.540Z,11.65
2019-04-20T04:31:34.600Z,11.72
2019-04-20T04:34:10.873Z,11.64
2019-04-20T04:36:48.288Z,11.71
2019-04-20T04:39:18.677Z,11.67
2019-04-20T04:41:58.383Z,11.66
2019-04-20T04:44:14.813Z,11.72
2019-04-20T04:46:43.512Z,11.74
2019-04-20T04:49:16.484Z,11.75
2019-04-20T04:51:47.065Z,11.72
2019-04-20T04:54:22.014Z,11.79
2019-04-20T04:56:42.363Z,11.84
2019-04-20T04:59:13.063Z,11.87
2019-04-20T05:01:48.868Z,11.76
2019-04-20T05:04:33.275Z,11.84
2019-04-20T05:06:58.148Z,11.87
2019-04-20T05:09:19.233Z,11.93
2019-04-20T05:12:02.086Z,11.72
2019-04-20T05:14:27.067Z,11.65
2019-04-20T05:17:07.730Z,11.79
2019-04-20T05:19:47.808Z,11.94
2019-04-20T05:22:27.569Z,11.99
2019-04-20T05:25:07.866Z,12.09
2019-04-20T05:27:47.930Z,12.05
2019-04-20T05:30:01.268Z,12.15
2019-04-20T05:32:41.293Z,12.17
2019-04-20T05:35:27.101Z,12.14
2019-04-20T05:40:35.218Z,12.16
2019-04-20T05:43:24.616Z,12.32
2019-04-20T05:45:45.388Z,12.39
2019-04-20T05:48:23.566Z,12.52
2019-04-20T05:51:12.166Z,12.58
2019-04-20T05:53:48.470Z,12.67
2019-04-20T05:56:08.432Z,12.65
2019-04-20T05:58:46.416Z,12.77
2019-04-20T06:01:22.822Z,12.90
2019-04-20T06:03:50.065Z,12.95
2019-04-20T06:06:23.466Z,13.24
2019-04-20T06:09:00.729Z,13.20
2019-04-20T06:11:29.475Z,13.22
2019-04-20T06:14:08.171Z,13.28
2019-04-20T06:17:17.014Z,13.34
2019-04-20T06:19:54.666Z,13.44
2019-04-20T06:22:35.206Z,13.74
2019-04-20T06:27:52.430Z,13.87
2019-04-20T06:30:18.901Z,14.06
2019-04-20T06:33:38.596Z,14.13
2019-04-20T06:36:15.082Z,14.10
2019-04-20T06:38:52.461Z,14.21
2019-04-20T06:41:17.529Z,14.25
2019-04-20T06:43:42.230Z,14.24
2019-04-20T06:46:09.859Z,14.38
2019-04-20T06:48:47.065Z,14.54
2019-04-20T06:51:18.823Z,14.67
2019-04-20T06:53:48.710Z,14.68
2019-04-20T06:56:33.632Z,14.71
2019-04-20T06:59:08.180Z,14.89
2019-04-20T07:01:42.259Z,14.99
2019-04-20T07:04:21.183Z,15.12
2019-04-20T07:09:24.604Z,15.41
2019-04-20T07:11:35.075Z,15.36
2019-04-20T07:13:54.450Z,15.51
2019-04-20T07:17:20.628Z,15.57
2019-04-20T07:20:04.135Z,15.68
2019-04-20T07:22:46.005Z,15.77
2019-04-20T07:25:14.389Z,16.01
2019-04-20T07:27:48.957Z,16.16
2019-04-20T07:30:19.369Z,16.18
2019-04-20T07:35:26.262Z,16.16
2019-04-20T07:38:25.657Z,16.39
2019-04-20T07:40:28.988Z,16.51
2019-04-20T07:43:01.569Z,16.71
2019-04-20T07:48:11.318Z,17.02
2019-04-20T07:50:32.251Z,17.01
2019-04-20T07:53:07.478Z,17.17
2019-04-20T07:55:52.361Z,17.46
2019-04-20T07:58:05.243Z,17.42
2019-04-20T08:01:18.078Z,17.65
2019-04-20T08:03:58.754Z,17.77
2019-04-20T08:06:23.254Z,18.00
2019-04-20T08:09:02.778Z,18.08
2019-04-20T08:11:44.820Z,18.20
2019-04-20T08:14:19.248Z,18.40
2019-04-20T08:19:14.751Z,18.61
2019-04-20T08:21:52.451Z,18.25
2019-04-20T08:24:21.547Z,18.65
2019-04-20T08:26:42.064Z,18.91
2019-04-20T08:29:33.163Z,19.15
2019-04-20T08:32:19.768Z,18.97
2019-04-20T08:34:47.489Z,18.97
2019-04-20T08:37:18.573Z,19.39
2019-04-20T08:40:07.220Z,19.44
2019-04-20T08:42:30.447Z,19.69
2019-04-20T08:45:30.714Z,20.00
2019-04-20T08:47:56.438Z,20.11
2019-04-20T08:50:22.406Z,20.19
2019-04-20T08:53:12.778Z,20.50
2019-04-20T08:55:28.154Z,20.66
2019-04-20T08:57:46.877Z,20.64
2019-04-20T09:00:25.847Z,20.37
2019-04-20T09:02:58.163Z,20.02
2019-04-20T09:05:40.021Z,20.34
2019-04-20T09:08:14.412Z,20.78
2019-04-20T09:10:49.173Z,20.70
2019-04-20T09:13:19.793Z,20.64
2019-04-20T09:15:44.752Z,21.25
2019-04-20T09:18:49.298Z,21.52
2019-04-20T09:21:24.324Z,21.63
2019-04-20T09:24:14.932Z,21.42
2019-04-20T09:26:54.574Z,21.86
2019-04-20T09:29:11.127Z,21.66
2019-04-20T09:31:47.095Z,22.16
2019-04-20T09:34:42.603Z,22.26
2019-04-20T09:37:45.824Z,22.36
2019-04-20T09:40:33.597Z,22.73
2019-04-20T09:42:51.458Z,23.25
2019-04-20T09:45:37.317Z,23.25
2019-04-20T09:48:02.120Z,23.14
2019-04-20T09:50:56.101Z,23.29
2019-04-20T09:53:22.273Z,23.19
2019-04-20T09:56:02.151Z,23.04
2019-04-20T09:58:24.629Z,23.04
2019-04-20T10:01:01.749Z,23.52
2019-04-20T10:03:22.387Z,23.66
2019-04-20T10:05:53.778Z,24.01
2019-04-20T10:08:25.974Z,24.29
2019-04-20T10:10:56.197Z,24.34
2019-04-20T10:13:27.286Z,24.61
2019-04-20T10:15:57.744Z,24.75
2019-04-20T10:18:35.134Z,24.93
2019-04-20T10:21:07.601Z,24.98
2019-04-20T10:23:40.709Z,23.96
2019-04-20T10:26:10.652Z,23.36
2019-04-20T10:28:41.347Z,24.13
2019-04-20T10:31:12.745Z,24.47
2019-04-20T10:33:43.803Z,24.86
2019-04-20T10:36:26.117Z,25.31
2019-04-20T10:38:58.678Z,25.69
2019-04-20T10:41:40.905Z,25.37
2019-04-20T10:44:02.882Z,25.60
2019-04-20T10:46:42.889Z,25.78
2019-04-20T10:49:13.295Z,25.83
2019-04-20T10:51:43.941Z,24.31
2019-04-20T10:54:14.248Z,25.16
2019-04-20T10:56:43.872Z,25.60
2019-04-20T10:59:13.834Z,26.16
2019-04-20T11:01:43.491Z,25.29
2019-04-20T11:04:12.960Z,25.76
2019-04-20T11:06:42.762Z,25.36
2019-04-20T11:09:12.011Z,25.48
2019-04-20T11:11:44.169Z,25.57
2019-04-20T11:14:22.845Z,25.94
2019-04-20T11:16:46.587Z,26.10
2019-04-20T11:19:16.012Z,25.82
2019-04-20T11:21:46.430Z,25.46
2019-04-20T11:24:16.387Z,25.75
2019-04-20T11:26:46.817Z,26.53
2019-04-20T11:29:18.081Z,26.30
2019-04-20T11:31:51.101Z,27.19
2019-04-20T11:34:28.543Z,27.17
2019-04-20T11:36:55.090Z,26.90
2019-04-20T11:39:25.080Z,26.79
2019-04-20T11:41:55.971Z,27.32
2019-04-20T11:44:27.859Z,27.53
2019-04-20T11:46:56.707Z,27.11
2019-04-20T11:49:26.243Z,27.52
2019-04-20T11:51:55.393Z,27.72
2019-04-20T11:54:24.604Z,27.80
2019-04-20T11:56:53.777Z,27.37
2019-04-20T11:59:23.197Z,27.35
2019-04-20T12:02:25.339Z,27.47
2019-04-20T12:05:10.141Z,27.52
2019-04-20T12:07:28.919Z,27.96
2019-04-20T12:10:08.098Z,28.09
2019-04-20T12:12:40.015Z,28.24
2019-04-20T12:15:01.918Z,27.03
2019-04-20T12:17:33.500Z,27.03
2019-04-20T12:20:03.987Z,27.50
2019-04-20T12:22:34.533Z,28.11
2019-04-20T12:25:03.761Z,28.55
2019-04-20T12:27:34.503Z,27.28
2019-04-20T12:30:05.779Z,28.17
2019-04-20T12:32:43.939Z,28.15
2019-04-20T12:35:08.585Z,28.70
2019-04-20T12:37:38.949Z,28.70
2019-04-20T12:40:09.070Z,28.69
2019-04-20T12:42:39.106Z,28.54
2019-04-20T12:45:09.473Z,28.74
2019-04-20T12:47:39.653Z,28.16
2019-04-20T12:50:11.962Z,27.75
2019-04-20T12:52:41.647Z,28.17
2019-04-20T12:55:12.423Z,28.70
2019-04-20T12:57:42.783Z,28.39
2019-04-20T13:00:13.256Z,27.94
2019-04-20T13:02:43.308Z,28.36
2019-04-20T13:05:15.394Z,28.70
2019-04-20T13:07:49.280Z,29.13
2019-04-20T13:10:17.830Z,29.57
2019-04-20T13:13:14.430Z,29.25
2019-04-20T13:16:04.494Z,29.53
2019-04-20T13:18:39.197Z,30.02
2019-04-20T13:21:09.567Z,30.43
2019-04-20T13:23:51.202Z,30.71
2019-04-20T13:26:22.543Z,30.48
2019-04-20T13:28:55.114Z,30.77
2019-04-20T13:31:24.388Z,30.92
2019-04-20T13:33:54.941Z,30.03
2019-04-20T13:36:26.155Z,30.35
2019-04-20T13:38:56.417Z,30.84
2019-04-20T13:41:25.720Z,30.15
2019-04-20T13:43:57.819Z,30.52
2019-04-20T13:46:27.248Z,31.38
2019-04-20T13:48:57.287Z,31.39
2019-04-20T13:51:26.670Z,31.17
2019-04-20T13:53:57.293Z,31.36
2019-04-20T13:56:27.963Z,31.76
2019-04-20T13:59:07.864Z,31.34
2019-04-20T14:01:51.237Z,31.63
2019-04-20T14:04:32.780Z,32.08
2019-04-20T14:07:03.375Z,31.54
2019-04-20T14:09:35.406Z,30.25
2019-04-20T14:12:17.338Z,30.81
2019-04-20T14:14:43.389Z,31.03
2019-04-20T14:17:13.061Z,31.69
2019-04-20T14:19:43.196Z,31.30
2019-04-20T14:22:13.223Z,31.32
2019-04-20T14:24:43.164Z,31.59
2019-04-20T14:27:13.301Z,31.28
2019-04-20T14:29:46.396Z,31.31
2019-04-20T14:32:16.797Z,31.28
2019-04-20T14:34:47.044Z,31.51
2019-04-20T14:37:17.527Z,31.24
2019-04-20T14:39:48.047Z,31.01
2019-04-20T14:42:30.660Z,30.54
2019-04-20T14:44:50.128Z,30.35
2019-04-20T14:47:19.507Z,30.63
2019-04-20T14:49:50.524Z,30.87
2019-04-20T14:52:25.902Z,31.45
2019-04-20T14:54:55.424Z,30.75
2019-04-20T14:57:25.560Z,31.44
2019-04-20T14:59:59.137Z,31.63
2019-04-20T15:02:30.413Z,31.45
2019-04-20T15:05:01.151Z,30.39
2019-04-20T15:07:31.332Z,30.46
2019-04-20T15:10:00.811Z,30.87
2019-04-20T15:12:43.289Z,31.61
2019-04-20T15:15:02.995Z,31.72
2019-04-20T15:17:47.823Z,31.77
2019-04-20T15:20:51.800Z,31.72
2019-04-20T15:23:23.773Z,31.66
2019-04-20T15:25:54.839Z,31.60
2019-04-20T15:28:26.285Z,31.18
2019-04-20T15:30:56.215Z,31.82
2019-04-20T15:33:25.733Z,30.80
2019-04-20T15:35:55.795Z,30.10
2019-04-20T15:38:25.177Z,30.11
2019-04-20T15:40:55.382Z,29.92
2019-04-20T15:43:30.303Z,30.02
2019-04-20T15:45:59.538Z,30.53
2019-04-20T15:48:29.981Z,31.19
2019-04-20T15:51:01.698Z,32.07
2019-04-20T15:53:33.522Z,32.11
2019-04-20T15:56:16.471Z,31.75
2019-04-20T15:58:46.211Z,32.10
2019-04-20T16:01:18.442Z,31.44
2019-04-20T16:04:03.511Z,31.33
2019-04-20T16:06:34.907Z,31.69
2019-04-20T16:09:06.223Z,31.77
2019-04-20T16:11:37.016Z,32.27
2019-04-20T16:14:07.227Z,32.84
2019-04-20T16:16:37.368Z,32.89
2019-04-20T16:19:19.534Z,32.51
2019-04-20T16:21:39.573Z,32.06
2019-04-20T16:24:13.116Z,31.30
2019-04-20T16:27:25.459Z,31.65
2019-04-20T16:29:55.788Z,31.28
2019-04-20T16:32:26.810Z,31.15
2019-04-20T16:34:56.269Z,31.48
2019-04-20T16:37:26.474Z,31.87
2019-04-20T16:39:56.643Z,32.18
2019-04-20T16:42:26.670Z,32.38
2019-04-20T16:44:57.005Z,32.89
2019-04-20T16:47:26.501Z,32.98
2019-04-20T16:49:57.108Z,32.98
2019-04-20T16:52:26.358Z,33.38
2019-04-20T16:54:55.680Z,33.34
2019-04-20T16:57:25.624Z,33.76
2019-04-20T16:59:57.761Z,33.97
2019-04-20T17:02:28.393Z,33.69
2019-04-20T17:04:59.022Z,33.96
2019-04-20T17:07:33.195Z,33.30
2019-04-20T17:10:04.219Z,32.96
2019-04-20T17:12:33.756Z,33.31
2019-04-20T17:15:05.609Z,33.17
2019-04-20T17:17:35.832Z,33.06
2019-04-20T17:20:05.780Z,32.92
2019-04-20T17:22:38.371Z,32.59
2019-04-20T17:25:21.790Z,31.66
2019-04-20T17:28:07.197Z,31.09
2019-04-20T17:30:59.218Z,30.84
2019-04-20T17:33:55.328Z,30.33
2019-04-20T17:36:21.463Z,30.34
2019-04-20T17:38:53.937Z,29.79
2019-04-20T17:41:40.175Z,29.79
2019-04-20T17:44:10.025Z,29.49
2019-04-20T17:46:38.441Z,29.39
2019-04-20T17:49:09.387Z,29.15
2019-04-20T17:51:49.087Z,29.21
2019-04-20T17:54:19.890Z,28.85
2019-04-20T17:57:13.107Z,28.74
2019-04-20T17:59:53.214Z,28.76
2019-04-20T18:02:57.470Z,28.75
2019-04-20T18:05:44.135Z,28.42
2019-04-20T18:08:15.493Z,28.29
2019-04-20T18:10:44.397Z,28.27
2019-04-20T18:13:07.056Z,28.17
2019-04-20T18:15:45.506Z,27.99
2019-04-20T18:18:38.988Z,27.45
2019-04-20T18:21:14.796Z,27.25
2019-04-20T18:23:46.591Z,26.81
2019-04-20T18:26:41.990Z,26.16
2019-04-20T18:29:20.135Z,26.15
2019-04-20T18:31:37.597Z,25.50
2019-04-20T18:34:20.294Z,25.13
2019-04-20T18:36:47.775Z,24.97
2019-04-20T18:39:39.901Z,24.56
2019-04-20T18:42:09.973Z,24.50
2019-04-20T18:44:55.602Z,24.07
2019-04-20T18:47:23.854Z,24.31
2019-04-20T18:49:46.593Z,23.70
2019-04-20T18:52:06.128Z,23.63
2019-04-20T18:54:40.654Z,23.41
2019-04-20T18:57:14.415Z,23.43
2019-04-20T18:59:47.050Z,23.14
2019-04-20T19:02:18.520Z,23.23
2019-04-20T19:04:43.900Z,22.80
2019-04-20T19:07:14.155Z,22.95
2019-04-20T19:09:44.812Z,22.89
2019-04-20T19:12:16.118Z,22.87
2019-04-20T19:15:12.120Z,22.68
2019-04-20T19:18:11.542Z,22.60
2019-04-20T19:20:34.738Z,22.48
2019-04-20T19:23:16.768Z,22.42
2019-04-20T19:25:46.003Z,22.23
2019-04-20T19:28:22.735Z,22.26
2019-04-20T19:31:02.447Z,22.29
2019-04-20T19:33:31.097Z,21.64
2019-04-20T19:35:56.139Z,21.55
2019-04-20T19:38:29.490Z,21.35
2019-04-20T19:41:00.127Z,21.40
2019-04-20T19:43:31.646Z,21.40
2019-04-20T19:46:34.906Z,21.24
2019-04-20T19:48:39.671Z,21.01
2019-04-20T19:51:22.398Z,21.01
2019-04-20T19:53:51.009Z,21.24
2019-04-20T19:56:10.751Z,21.24
2019-04-20T19:58:39.701Z,20.95
2019-04-20T20:01:03.576Z,20.68
2019-04-20T20:03:33.366Z,20.93
2019-04-20T20:06:03.913Z,20.59
2019-04-20T20:08:36.470Z,20.59
2019-04-20T20:11:09.564Z,20.48
2019-04-20T20:13:46.512Z,20.13
2019-04-20T20:16:21.527Z,20.33
2019-04-20T20:18:55.350Z,20.23
2019-04-20T20:21:23.708Z,20.21
2019-04-20T20:23:45.949Z,19.96
2019-04-20T20:26:23.270Z,19.96
2019-04-20T20:28:52.865Z,20.01
2019-04-20T20:31:28.036Z,19.98
2019-04-20T20:34:03.127Z,19.84
2019-04-20T20:36:28.850Z,19.84
2019-04-20T20:39:04.508Z,19.60
2019-04-20T20:41:32.966Z,19.34
2019-04-20T20:44:08.084Z,19.59
2019-04-20T20:47:00.759Z,19.46
2019-04-20T20:49:38.603Z,19.53
2019-04-20T20:52:16.217Z,19.21
2019-04-20T20:54:33.669Z,19.33
2019-04-20T20:57:02.906Z,19.28
2019-04-20T20:59:34.729Z,19.23
2019-04-20T21:02:06.797Z,19.10
2019-04-20T21:04:27.842Z,19.08
2019-04-20T21:06:58.087Z,18.83
2019-04-20T21:09:29.310Z,18.87
2019-04-20T21:12:04.806Z,18.74
2019-04-20T21:14:32.913Z,18.79
2019-04-20T21:17:09.596Z,18.58
2019-04-20T21:19:48.059Z,18.68
2019-04-20T21:22:08.508Z,18.51
2019-04-20T21:24:39.894Z,18.29
2019-04-20T21:27:15.308Z,18.46
2019-04-20T21:29:51.462Z,18.53
2019-04-20T21:32:23.466Z,18.30
2019-04-20T21:34:58.549Z,18.05
2019-04-20T21:37:27.204Z,18.11
2019-04-20T21:40:00.505Z,18.25
2019-04-20T21:42:30.322Z,18.38
2019-04-20T21:45:07.043Z,18.29
2019-04-20T21:47:38.262Z,18.31
2019-04-20T21:50:27.942Z,18.23
2019-04-20T21:52:44.274Z,18.25
2019-04-20T21:55:12.112Z,18.06
2019-04-20T21:57:50.187Z,18.00
2019-04-20T22:00:37.570Z,17.51
2019-04-20T22:03:07.765Z,17.79
2019-04-20T22:05:40.221Z,17.77
2019-04-20T22:08:14.059Z,17.93
2019-04-20T22:10:44.927Z,17.82
2019-04-20T22:13:19.462Z,17.58
2019-04-20T22:16:01.093Z,17.63
2019-04-20T22:18:25.381Z,17.58
2019-04-20T22:21:11.177Z,17.66
2019-04-20T22:23:47.620Z,17.58
2019-04-20T22:26:11.880Z,17.56
2019-04-20T22:28:40.296Z,17.52
2019-04-20T22:31:15.971Z,17.50
2019-04-20T22:33:47.280Z,16.97
2019-04-20T22:36:18.210Z,16.86
2019-04-20T22:39:07.548Z,16.87
2019-04-20T22:41:45.799Z,16.84
2019-04-20T22:44:18.448Z,16.88
2019-04-20T22:46:46.187Z,16.74
2019-04-20T22:49:33.092Z,16.84
2019-04-20T22:51:58.208Z,16.90
2019-04-20T22:54:37.918Z,16.88
2019-04-20T22:57:00.799Z,16.75
2019-04-20T22:59:39.894Z,16.74
2019-04-20T23:02:04.191Z,16.77
2019-04-20T23:04:37.112Z,16.65
2019-04-20T23:07:10.596Z,16.50
2019-04-20T23:09:50.337Z,16.50
2019-04-20T23:12:15.687Z,16.48
2019-04-20T23:14:44.715Z,16.01
2019-04-20T23:17:26.181Z,15.81
2019-04-20T23:19:53.935Z,15.63
2019-04-20T23:22:21.082Z,15.51
2019-04-20T23:24:53.307Z,15.37
2019-04-20T23:27:31.114Z,15.45
2019-04-20T23:29:58.551Z,15.39
2019-04-20T23:32:30.283Z,15.35
2019-04-20T23:35:05.832Z,15.30
2019-04-20T23:37:36.911Z,15.42
2019-04-20T23:40:11.315Z,15.34
2019-04-20T23:42:49.544Z,15.29
2019-04-20T23:45:54.792Z,15.23
2019-04-20T23:48:33.697Z,14.98
2019-04-20T23:51:26.107Z,14.91
2019-04-20T23:53:45.453Z,14.72
2019-04-20T23:56:03.864Z,14.75
2019-04-20T23:58:42.908Z,14.58
